sensor_id;sensor_type;location;lat;lon;timestamp;P1;durP1;ratioP1;P2;durP2;ratioP2
5339;SDS011;2692;48.848;8.924;2022-08-19T00:01:29;7.87;;;5.50;;
5339;SDS011;2692;48.848;8.924;2022-08-19T00:03:55;13.77;;;6.50;;
5339;SDS011;2692;48.848;8.924;2022-08-19T00:06:22;10.77;;;5.57;;
5339;SDS011;2692;48.848;8.924;2022-08-19T00:08:47;8.60;;;5.00;;
5339;SDS011;2692;48.848;8.924;2022-08-19T00:11:13;11.43;;;5.43;;
5339;SDS011;2692;48.848;8.924;2022-08-19T00:13:38;9.87;;;6.90;;
5339;SDS011;2692;48.848;8.924;2022-08-19T00:16:04;15.67;;;6.40;;
5339;SDS011;2692;48.848;8.924;2022-08-19T00:18:31;22.83;;;6.07;;
5339;SDS011;2692;48.848;8.924;2022-08-19T00:20:56;8.90;;;6.00;;
5339;SDS011;2692;48.848;8.924;2022-08-19T00:23:22;13.83;;;6.47;;
5339;SDS011;2692;48.848;8.924;2022-08-19T00:25:47;15.17;;;7.30;;
5339;SDS011;2692;48.848;8.924;2022-08-19T00:28:13;10.90;;;6.07;;
5339;SDS011;2692;48.848;8.924;2022-08-19T00:30:39;10.53;;;5.70;;
5339;SDS011;2692;48.848;8.924;2022-08-19T00:33:05;11.80;;;6.67;;
5339;SDS011;2692;48.848;8.924;2022-08-19T00:35:33;10.47;;;5.83;;
5339;SDS011;2692;48.848;8.924;2022-08-19T00:37:58;11.67;;;6.70;;
5339;SDS011;2692;48.848;8.924;2022-08-19T00:40:24;15.23;;;6.20;;
5339;SDS011;2692;48.848;8.924;2022-08-19T00:42:50;18.20;;;6.83;;
5339;SDS011;2692;48.848;8.924;2022-08-19T00:45:19;11.87;;;7.40;;
5339;SDS011;2692;48.848;8.924;2022-08-19T00:47:46;10.70;;;6.40;;
5339;SDS011;2692;48.848;8.924;2022-08-19T00:50:12;10.33;;;6.03;;
5339;SDS011;2692;48.848;8.924;2022-08-19T00:52:42;16.43;;;6.37;;
5339;SDS011;2692;48.848;8.924;2022-08-19T00:55:10;8.20;;;5.97;;
5339;SDS011;2692;48.848;8.924;2022-08-19T00:57:39;12.33;;;6.83;;
5339;SDS011;2692;48.848;8.924;2022-08-19T01:00:08;19.13;;;7.60;;
5339;SDS011;2692;48.848;8.924;2022-08-19T01:02:36;17.90;;;8.37;;
5339;SDS011;2692;48.848;8.924;2022-08-19T01:05:03;15.20;;;6.47;;
5339;SDS011;2692;48.848;8.924;2022-08-19T01:07:30;12.43;;;6.83;;
5339;SDS011;2692;48.848;8.924;2022-08-19T01:09:55;8.47;;;6.00;;
5339;SDS011;2692;48.848;8.924;2022-08-19T01:12:21;12.97;;;6.83;;
5339;SDS011;2692;48.848;8.924;2022-08-19T01:14:47;16.40;;;8.53;;
5339;SDS011;2692;48.848;8.924;2022-08-19T01:17:12;11.50;;;6.47;;
5339;SDS011;2692;48.848;8.924;2022-08-19T01:19:40;16.90;;;6.87;;
5339;SDS011;2692;48.848;8.924;2022-08-19T01:24:45;10.90;;;6.50;;
5339;SDS011;2692;48.848;8.924;2022-08-19T01:27:10;13.73;;;7.67;;
5339;SDS011;2692;48.848;8.924;2022-08-19T01:29:36;15.00;;;7.60;;
5339;SDS011;2692;48.848;8.924;2022-08-19T01:32:04;11.73;;;6.47;;
5339;SDS011;2692;48.848;8.924;2022-08-19T01:34:29;20.20;;;9.53;;
5339;SDS011;2692;48.848;8.924;2022-08-19T01:36:55;13.60;;;7.80;;
5339;SDS011;2692;48.848;8.924;2022-08-19T01:39:21;10.20;;;6.50;;
5339;SDS011;2692;48.848;8.924;2022-08-19T01:41:49;13.70;;;7.97;;
5339;SDS011;2692;48.848;8.924;2022-08-19T01:44:15;13.47;;;7.87;;
5339;SDS011;2692;48.848;8.924;2022-08-19T01:46:41;15.27;;;7.50;;
5339;SDS011;2692;48.848;8.924;2022-08-19T01:49:08;17.93;;;7.67;;
5339;SDS011;2692;48.848;8.924;2022-08-19T01:51:33;18.20;;;8.10;;
5339;SDS011;2692;48.848;8.924;2022-08-19T01:53:59;12.20;;;7.40;;
5339;SDS011;2692;48.848;8.924;2022-08-19T01:56:24;17.00;;;7.10;;
5339;SDS011;2692;48.848;8.924;2022-08-19T01:58:54;28.30;;;8.47;;
5339;SDS011;2692;48.848;8.924;2022-08-19T02:01:21;12.50;;;7.43;;
5339;SDS011;2692;48.848;8.924;2022-08-19T02:03:46;15.90;;;9.00;;
5339;SDS011;2692;48.848;8.924;2022-08-19T02:06:12;15.50;;;8.60;;
5339;SDS011;2692;48.848;8.924;2022-08-19T02:08:37;13.13;;;6.60;;
5339;SDS011;2692;48.848;8.924;2022-08-19T02:11:04;21.40;;;8.93;;
5339;SDS011;2692;48.848;8.924;2022-08-19T02:13:30;17.73;;;8.57;;
5339;SDS011;2692;48.848;8.924;2022-08-19T02:15:55;16.13;;;6.90;;
5339;SDS011;2692;48.848;8.924;2022-08-19T02:18:20;20.13;;;8.10;;
5339;SDS011;2692;48.848;8.924;2022-08-19T02:20:46;21.93;;;8.47;;
5339;SDS011;2692;48.848;8.924;2022-08-19T02:23:15;20.23;;;7.90;;
5339;SDS011;2692;48.848;8.924;2022-08-19T02:25:41;11.40;;;7.70;;
5339;SDS011;2692;48.848;8.924;2022-08-19T02:28:11;31.53;;;8.83;;
5339;SDS011;2692;48.848;8.924;2022-08-19T02:30:37;15.07;;;8.33;;
5339;SDS011;2692;48.848;8.924;2022-08-19T02:33:03;13.27;;;7.47;;
5339;SDS011;2692;48.848;8.924;2022-08-19T02:35:29;14.20;;;7.40;;
5339;SDS011;2692;48.848;8.924;2022-08-19T02:37:54;12.60;;;7.60;;
5339;SDS011;2692;48.848;8.924;2022-08-19T02:40:38;15.67;;;8.77;;
5339;SDS011;2692;48.848;8.924;2022-08-19T02:43:05;15.90;;;9.33;;
5339;SDS011;2692;48.848;8.924;2022-08-19T02:45:35;12.53;;;7.50;;
5339;SDS011;2692;48.848;8.924;2022-08-19T02:48:02;18.40;;;7.30;;
5339;SDS011;2692;48.848;8.924;2022-08-19T02:50:27;15.93;;;7.27;;
5339;SDS011;2692;48.848;8.924;2022-08-19T02:52:53;14.90;;;8.70;;
5339;SDS011;2692;48.848;8.924;2022-08-19T02:55:18;15.23;;;9.20;;
5339;SDS011;2692;48.848;8.924;2022-08-19T02:57:45;17.33;;;9.13;;
5339;SDS011;2692;48.848;8.924;2022-08-19T03:00:11;13.33;;;8.33;;
5339;SDS011;2692;48.848;8.924;2022-08-19T03:02:37;13.03;;;8.87;;
5339;SDS011;2692;48.848;8.924;2022-08-19T03:05:04;18.80;;;10.20;;
5339;SDS011;2692;48.848;8.924;2022-08-19T03:07:30;17.13;;;10.27;;
5339;SDS011;2692;48.848;8.924;2022-08-19T03:09:56;18.10;;;9.10;;
5339;SDS011;2692;48.848;8.924;2022-08-19T03:12:21;13.80;;;8.70;;
5339;SDS011;2692;48.848;8.924;2022-08-19T03:14:46;18.97;;;8.97;;
5339;SDS011;2692;48.848;8.924;2022-08-19T03:17:12;21.10;;;10.70;;
5339;SDS011;2692;48.848;8.924;2022-08-19T03:19:37;19.73;;;10.70;;
5339;SDS011;2692;48.848;8.924;2022-08-19T03:22:03;18.67;;;10.27;;
5339;SDS011;2692;48.848;8.924;2022-08-19T03:24:29;21.13;;;10.20;;
5339;SDS011;2692;48.848;8.924;2022-08-19T03:26:55;17.10;;;9.40;;
5339;SDS011;2692;48.848;8.924;2022-08-19T03:29:22;19.30;;;9.90;;
5339;SDS011;2692;48.848;8.924;2022-08-19T03:31:48;18.40;;;9.57;;
5339;SDS011;2692;48.848;8.924;2022-08-19T03:34:18;18.63;;;10.10;;
5339;SDS011;2692;48.848;8.924;2022-08-19T03:36:45;14.63;;;9.00;;
5339;SDS011;2692;48.848;8.924;2022-08-19T03:39:11;16.70;;;10.03;;
5339;SDS011;2692;48.848;8.924;2022-08-19T03:41:37;23.03;;;10.13;;
5339;SDS011;2692;48.848;8.924;2022-08-19T03:44:04;15.60;;;9.70;;
5339;SDS011;2692;48.848;8.924;2022-08-19T03:46:30;21.53;;;10.73;;
5339;SDS011;2692;48.848;8.924;2022-08-19T03:48:58;20.20;;;10.00;;
5339;SDS011;2692;48.848;8.924;2022-08-19T03:51:26;23.30;;;8.93;;
5339;SDS011;2692;48.848;8.924;2022-08-19T03:53:54;18.27;;;9.77;;
5339;SDS011;2692;48.848;8.924;2022-08-19T03:56:20;26.00;;;10.30;;
5339;SDS011;2692;48.848;8.924;2022-08-19T03:58:46;26.93;;;10.27;;
5339;SDS011;2692;48.848;8.924;2022-08-19T04:01:14;21.77;;;10.67;;
5339;SDS011;2692;48.848;8.924;2022-08-19T04:03:42;15.93;;;8.90;;
5339;SDS011;2692;48.848;8.924;2022-08-19T04:06:19;19.30;;;10.60;;
5339;SDS011;2692;48.848;8.924;2022-08-19T04:08:47;20.07;;;11.00;;
5339;SDS011;2692;48.848;8.924;2022-08-19T04:11:15;18.57;;;9.20;;
5339;SDS011;2692;48.848;8.924;2022-08-19T04:13:42;17.50;;;9.23;;
5339;SDS011;2692;48.848;8.924;2022-08-19T04:16:09;47.53;;;10.43;;
5339;SDS011;2692;48.848;8.924;2022-08-19T04:18:35;17.87;;;10.63;;
5339;SDS011;2692;48.848;8.924;2022-08-19T04:21:02;20.17;;;9.53;;
5339;SDS011;2692;48.848;8.924;2022-08-19T04:23:28;17.23;;;10.23;;
5339;SDS011;2692;48.848;8.924;2022-08-19T04:25:54;19.03;;;10.80;;
5339;SDS011;2692;48.848;8.924;2022-08-19T04:28:19;16.07;;;8.80;;
5339;SDS011;2692;48.848;8.924;2022-08-19T04:30:46;18.77;;;10.40;;
5339;SDS011;2692;48.848;8.924;2022-08-19T04:33:14;15.57;;;10.50;;
5339;SDS011;2692;48.848;8.924;2022-08-19T04:35:45;25.07;;;9.93;;
5339;SDS011;2692;48.848;8.924;2022-08-19T04:38:12;38.03;;;10.57;;
5339;SDS011;2692;48.848;8.924;2022-08-19T04:40:41;14.47;;;9.20;;
5339;SDS011;2692;48.848;8.924;2022-08-19T04:43:29;14.73;;;10.23;;
5339;SDS011;2692;48.848;8.924;2022-08-19T04:45:56;17.17;;;10.10;;
5339;SDS011;2692;48.848;8.924;2022-08-19T04:48:22;23.90;;;10.67;;
5339;SDS011;2692;48.848;8.924;2022-08-19T04:50:53;14.60;;;8.77;;
5339;SDS011;2692;48.848;8.924;2022-08-19T04:53:25;21.63;;;9.17;;
5339;SDS011;2692;48.848;8.924;2022-08-19T04:55:51;19.23;;;10.10;;
5339;SDS011;2692;48.848;8.924;2022-08-19T04:58:17;20.63;;;9.60;;
5339;SDS011;2692;48.848;8.924;2022-08-19T05:00:43;17.17;;;10.90;;
5339;SDS011;2692;48.848;8.924;2022-08-19T05:03:08;17.10;;;10.30;;
5339;SDS011;2692;48.848;8.924;2022-08-19T05:05:38;17.20;;;9.70;;
5339;SDS011;2692;48.848;8.924;2022-08-19T05:08:04;27.67;;;12.40;;
5339;SDS011;2692;48.848;8.924;2022-08-19T05:10:30;18.27;;;10.40;;
5339;SDS011;2692;48.848;8.924;2022-08-19T05:12:56;17.13;;;9.67;;
5339;SDS011;2692;48.848;8.924;2022-08-19T05:15:22;17.47;;;9.10;;
5339;SDS011;2692;48.848;8.924;2022-08-19T05:17:47;15.03;;;9.67;;
5339;SDS011;2692;48.848;8.924;2022-08-19T05:20:33;16.00;;;10.07;;
5339;SDS011;2692;48.848;8.924;2022-08-19T05:23:16;19.23;;;10.03;;
5339;SDS011;2692;48.848;8.924;2022-08-19T05:25:42;14.97;;;9.57;;
5339;SDS011;2692;48.848;8.924;2022-08-19T05:28:07;13.60;;;9.57;;
5339;SDS011;2692;48.848;8.924;2022-08-19T05:30:33;16.43;;;10.10;;
5339;SDS011;2692;48.848;8.924;2022-08-19T05:32:59;15.80;;;9.23;;
5339;SDS011;2692;48.848;8.924;2022-08-19T05:35:24;26.63;;;9.63;;
5339;SDS011;2692;48.848;8.924;2022-08-19T05:37:49;17.67;;;8.80;;
5339;SDS011;2692;48.848;8.924;2022-08-19T05:40:15;17.23;;;9.37;;
5339;SDS011;2692;48.848;8.924;2022-08-19T05:42:40;13.27;;;8.63;;
5339;SDS011;2692;48.848;8.924;2022-08-19T05:45:06;20.57;;;9.60;;
5339;SDS011;2692;48.848;8.924;2022-08-19T05:47:32;17.57;;;9.40;;
5339;SDS011;2692;48.848;8.924;2022-08-19T05:49:57;20.13;;;10.20;;
5339;SDS011;2692;48.848;8.924;2022-08-19T05:52:22;17.63;;;10.43;;
5339;SDS011;2692;48.848;8.924;2022-08-19T05:54:48;21.07;;;10.90;;
5339;SDS011;2692;48.848;8.924;2022-08-19T05:57:15;25.20;;;9.80;;
5339;SDS011;2692;48.848;8.924;2022-08-19T05:59:41;16.67;;;9.40;;
5339;SDS011;2692;48.848;8.924;2022-08-19T06:02:06;15.77;;;9.17;;
5339;SDS011;2692;48.848;8.924;2022-08-19T06:04:32;22.30;;;10.50;;
5339;SDS011;2692;48.848;8.924;2022-08-19T06:06:57;14.67;;;9.00;;
5339;SDS011;2692;48.848;8.924;2022-08-19T06:09:23;19.30;;;11.07;;
5339;SDS011;2692;48.848;8.924;2022-08-19T06:11:52;19.67;;;10.00;;
5339;SDS011;2692;48.848;8.924;2022-08-19T06:14:20;14.80;;;9.50;;
5339;SDS011;2692;48.848;8.924;2022-08-19T06:16:49;17.93;;;9.90;;
5339;SDS011;2692;48.848;8.924;2022-08-19T06:19:19;14.53;;;8.77;;
5339;SDS011;2692;48.848;8.924;2022-08-19T06:21:47;15.47;;;8.40;;
5339;SDS011;2692;48.848;8.924;2022-08-19T06:24:15;21.10;;;10.67;;
5339;SDS011;2692;48.848;8.924;2022-08-19T06:26:43;16.73;;;9.80;;
5339;SDS011;2692;48.848;8.924;2022-08-19T06:29:10;13.00;;;9.27;;
5339;SDS011;2692;48.848;8.924;2022-08-19T06:31:40;15.10;;;8.93;;
5339;SDS011;2692;48.848;8.924;2022-08-19T06:34:06;16.60;;;11.00;;
5339;SDS011;2692;48.848;8.924;2022-08-19T06:36:33;18.73;;;8.60;;
5339;SDS011;2692;48.848;8.924;2022-08-19T06:39:02;14.57;;;9.10;;
5339;SDS011;2692;48.848;8.924;2022-08-19T06:41:40;19.80;;;9.63;;
5339;SDS011;2692;48.848;8.924;2022-08-19T06:44:07;17.57;;;8.90;;
5339;SDS011;2692;48.848;8.924;2022-08-19T06:46:32;16.30;;;9.30;;
5339;SDS011;2692;48.848;8.924;2022-08-19T06:48:58;16.47;;;9.20;;
5339;SDS011;2692;48.848;8.924;2022-08-19T06:51:24;15.87;;;9.30;;
5339;SDS011;2692;48.848;8.924;2022-08-19T06:53:50;15.83;;;7.33;;
5339;SDS011;2692;48.848;8.924;2022-08-19T06:56:17;17.67;;;9.50;;
5339;SDS011;2692;48.848;8.924;2022-08-19T06:58:44;17.70;;;9.70;;
5339;SDS011;2692;48.848;8.924;2022-08-19T07:01:11;13.90;;;7.73;;
5339;SDS011;2692;48.848;8.924;2022-08-19T07:03:37;17.47;;;9.10;;
5339;SDS011;2692;48.848;8.924;2022-08-19T07:06:08;15.00;;;7.67;;
5339;SDS011;2692;48.848;8.924;2022-08-19T07:08:39;17.17;;;8.80;;
5339;SDS011;2692;48.848;8.924;2022-08-19T07:11:08;11.40;;;7.60;;
5339;SDS011;2692;48.848;8.924;2022-08-19T07:13:35;15.73;;;8.83;;
5339;SDS011;2692;48.848;8.924;2022-08-19T07:16:13;17.07;;;8.47;;
5339;SDS011;2692;48.848;8.924;2022-08-19T07:18:39;12.90;;;6.60;;
5339;SDS011;2692;48.848;8.924;2022-08-19T07:21:06;18.83;;;8.73;;
5339;SDS011;2692;48.848;8.924;2022-08-19T07:23:33;21.97;;;8.77;;
5339;SDS011;2692;48.848;8.924;2022-08-19T07:26:03;11.23;;;6.57;;
5339;SDS011;2692;48.848;8.924;2022-08-19T07:28:33;12.77;;;7.00;;
5339;SDS011;2692;48.848;8.924;2022-08-19T07:30:58;13.17;;;8.37;;
5339;SDS011;2692;48.848;8.924;2022-08-19T07:33:23;13.30;;;6.93;;
5339;SDS011;2692;48.848;8.924;2022-08-19T07:35:49;13.60;;;9.17;;
5339;SDS011;2692;48.848;8.924;2022-08-19T07:38:15;14.00;;;8.13;;
5339;SDS011;2692;48.848;8.924;2022-08-19T07:40:40;12.87;;;7.50;;
5339;SDS011;2692;48.848;8.924;2022-08-19T07:43:08;19.33;;;9.93;;
5339;SDS011;2692;48.848;8.924;2022-08-19T07:45:33;13.70;;;6.33;;
5339;SDS011;2692;48.848;8.924;2022-08-19T07:47:59;12.37;;;7.60;;
5339;SDS011;2692;48.848;8.924;2022-08-19T07:50:25;13.00;;;7.60;;
5339;SDS011;2692;48.848;8.924;2022-08-19T07:52:50;11.03;;;7.00;;
5339;SDS011;2692;48.848;8.924;2022-08-19T07:55:19;9.60;;;6.60;;
5339;SDS011;2692;48.848;8.924;2022-08-19T07:57:45;15.13;;;8.80;;
5339;SDS011;2692;48.848;8.924;2022-08-19T08:00:11;11.03;;;7.83;;
5339;SDS011;2692;48.848;8.924;2022-08-19T08:02:36;13.60;;;7.60;;
5339;SDS011;2692;48.848;8.924;2022-08-19T08:05:04;16.07;;;6.90;;
5339;SDS011;2692;48.848;8.924;2022-08-19T08:07:48;12.27;;;7.53;;
5339;SDS011;2692;48.848;8.924;2022-08-19T08:10:32;25.30;;;7.30;;
5339;SDS011;2692;48.848;8.924;2022-08-19T08:12:57;12.30;;;7.17;;
5339;SDS011;2692;48.848;8.924;2022-08-19T08:15:22;19.40;;;8.33;;
5339;SDS011;2692;48.848;8.924;2022-08-19T08:17:48;10.37;;;6.90;;
5339;SDS011;2692;48.848;8.924;2022-08-19T08:20:13;13.97;;;7.73;;
5339;SDS011;2692;48.848;8.924;2022-08-19T08:22:42;10.73;;;6.70;;
5339;SDS011;2692;48.848;8.924;2022-08-19T08:25:27;12.70;;;7.30;;
5339;SDS011;2692;48.848;8.924;2022-08-19T08:27:52;11.13;;;5.33;;
5339;SDS011;2692;48.848;8.924;2022-08-19T08:30:19;15.90;;;7.60;;
5339;SDS011;2692;48.848;8.924;2022-08-19T08:32:46;14.27;;;7.50;;
5339;SDS011;2692;48.848;8.924;2022-08-19T08:35:12;14.20;;;7.77;;
5339;SDS011;2692;48.848;8.924;2022-08-19T08:37:39;13.17;;;5.67;;
5339;SDS011;2692;48.848;8.924;2022-08-19T08:40:05;15.30;;;7.70;;
5339;SDS011;2692;48.848;8.924;2022-08-19T08:42:36;20.53;;;6.53;;
5339;SDS011;2692;48.848;8.924;2022-08-19T08:45:10;8.87;;;6.03;;
5339;SDS011;2692;48.848;8.924;2022-08-19T08:47:40;11.50;;;7.00;;
5339;SDS011;2692;48.848;8.924;2022-08-19T08:53:08;14.70;;;6.90;;
5339;SDS011;2692;48.848;8.924;2022-08-19T08:55:34;18.07;;;7.13;;
5339;SDS011;2692;48.848;8.924;2022-08-19T09:00:36;14.00;;;7.20;;
5339;SDS011;2692;48.848;8.924;2022-08-19T09:03:03;14.57;;;7.53;;
5339;SDS011;2692;48.848;8.924;2022-08-19T09:05:38;10.57;;;7.27;;
5339;SDS011;2692;48.848;8.924;2022-08-19T09:08:09;9.23;;;6.63;;
5339;SDS011;2692;48.848;8.924;2022-08-19T09:10:52;20.67;;;8.10;;
5339;SDS011;2692;48.848;8.924;2022-08-19T09:16:16;13.07;;;7.20;;
5339;SDS011;2692;48.848;8.924;2022-08-19T09:18:55;21.83;;;6.77;;
5339;SDS011;2692;48.848;8.924;2022-08-19T09:21:24;14.43;;;6.70;;
5339;SDS011;2692;48.848;8.924;2022-08-19T09:23:50;11.40;;;6.73;;
5339;SDS011;2692;48.848;8.924;2022-08-19T09:26:17;10.43;;;6.60;;
5339;SDS011;2692;48.848;8.924;2022-08-19T09:28:45;9.60;;;6.47;;
5339;SDS011;2692;48.848;8.924;2022-08-19T09:31:13;10.47;;;6.73;;
5339;SDS011;2692;48.848;8.924;2022-08-19T09:33:39;9.20;;;6.47;;
5339;SDS011;2692;48.848;8.924;2022-08-19T09:36:05;12.63;;;6.97;;
5339;SDS011;2692;48.848;8.924;2022-08-19T09:38:33;12.03;;;5.90;;
5339;SDS011;2692;48.848;8.924;2022-08-19T09:41:05;15.77;;;5.53;;
5339;SDS011;2692;48.848;8.924;2022-08-19T09:43:32;13.73;;;6.27;;
5339;SDS011;2692;48.848;8.924;2022-08-19T09:45:58;10.20;;;4.63;;
5339;SDS011;2692;48.848;8.924;2022-08-19T09:48:25;16.57;;;5.80;;
5339;SDS011;2692;48.848;8.924;2022-08-19T09:50:50;15.37;;;5.80;;
5339;SDS011;2692;48.848;8.924;2022-08-19T09:53:16;8.27;;;4.33;;
5339;SDS011;2692;48.848;8.924;2022-08-19T09:55:42;9.93;;;5.30;;
5339;SDS011;2692;48.848;8.924;2022-08-19T09:58:08;17.77;;;6.03;;
5339;SDS011;2692;48.848;8.924;2022-08-19T10:00:33;8.90;;;5.20;;
5339;SDS011;2692;48.848;8.924;2022-08-19T10:02:59;10.83;;;4.90;;
5339;SDS011;2692;48.848;8.924;2022-08-19T10:05:24;13.50;;;6.03;;
5339;SDS011;2692;48.848;8.924;2022-08-19T10:08:08;17.37;;;7.20;;
5339;SDS011;2692;48.848;8.924;2022-08-19T10:10:35;11.07;;;5.30;;
5339;SDS011;2692;48.848;8.924;2022-08-19T10:13:00;9.00;;;4.67;;
5339;SDS011;2692;48.848;8.924;2022-08-19T10:15:26;6.50;;;4.27;;
5339;SDS011;2692;48.848;8.924;2022-08-19T10:17:51;5.30;;;3.70;;
5339;SDS011;2692;48.848;8.924;2022-08-19T10:20:16;11.53;;;4.90;;
5339;SDS011;2692;48.848;8.924;2022-08-19T10:22:42;7.03;;;4.17;;
5339;SDS011;2692;48.848;8.924;2022-08-19T10:25:08;9.60;;;5.17;;
5339;SDS011;2692;48.848;8.924;2022-08-19T10:27:33;6.90;;;3.93;;
5339;SDS011;2692;48.848;8.924;2022-08-19T10:29:58;8.40;;;4.63;;
5339;SDS011;2692;48.848;8.924;2022-08-19T10:32:24;6.80;;;4.30;;
5339;SDS011;2692;48.848;8.924;2022-08-19T10:34:50;10.70;;;5.07;;
5339;SDS011;2692;48.848;8.924;2022-08-19T10:37:17;6.10;;;4.30;;
5339;SDS011;2692;48.848;8.924;2022-08-19T10:39:45;9.87;;;4.90;;
5339;SDS011;2692;48.848;8.924;2022-08-19T10:42:12;7.90;;;5.20;;
5339;SDS011;2692;48.848;8.924;2022-08-19T10:44:38;8.40;;;5.67;;
5339;SDS011;2692;48.848;8.924;2022-08-19T10:47:04;5.97;;;4.00;;
5339;SDS011;2692;48.848;8.924;2022-08-19T10:49:30;10.40;;;4.80;;
5339;SDS011;2692;48.848;8.924;2022-08-19T10:51:56;17.17;;;5.53;;
5339;SDS011;2692;48.848;8.924;2022-08-19T10:54:40;22.17;;;5.23;;
5339;SDS011;2692;48.848;8.924;2022-08-19T10:57:24;5.80;;;4.13;;
5339;SDS011;2692;48.848;8.924;2022-08-19T10:59:54;8.97;;;3.77;;
5339;SDS011;2692;48.848;8.924;2022-08-19T11:02:20;9.80;;;4.03;;
5339;SDS011;2692;48.848;8.924;2022-08-19T11:04:45;8.90;;;4.43;;
5339;SDS011;2692;48.848;8.924;2022-08-19T11:07:11;11.33;;;4.67;;
5339;SDS011;2692;48.848;8.924;2022-08-19T11:09:38;8.73;;;3.70;;
5339;SDS011;2692;48.848;8.924;2022-08-19T11:12:05;6.30;;;3.70;;
5339;SDS011;2692;48.848;8.924;2022-08-19T11:14:32;8.00;;;4.30;;
5339;SDS011;2692;48.848;8.924;2022-08-19T11:16:58;7.47;;;3.80;;
5339;SDS011;2692;48.848;8.924;2022-08-19T11:19:24;8.90;;;3.20;;
5339;SDS011;2692;48.848;8.924;2022-08-19T11:21:49;10.73;;;3.83;;
5339;SDS011;2692;48.848;8.924;2022-08-19T11:24:20;6.27;;;3.10;;
5339;SDS011;2692;48.848;8.924;2022-08-19T11:26:48;5.23;;;3.47;;
5339;SDS011;2692;48.848;8.924;2022-08-19T11:29:15;11.03;;;3.50;;
5339;SDS011;2692;48.848;8.924;2022-08-19T11:31:43;4.60;;;2.67;;
5339;SDS011;2692;48.848;8.924;2022-08-19T11:34:11;7.10;;;3.27;;
5339;SDS011;2692;48.848;8.924;2022-08-19T11:36:38;8.00;;;3.90;;
5339;SDS011;2692;48.848;8.924;2022-08-19T11:39:06;6.53;;;3.57;;
5339;SDS011;2692;48.848;8.924;2022-08-19T11:41:32;4.20;;;2.90;;
5339;SDS011;2692;48.848;8.924;2022-08-19T11:43:58;4.73;;;3.20;;
5339;SDS011;2692;48.848;8.924;2022-08-19T11:46:24;8.07;;;3.60;;
5339;SDS011;2692;48.848;8.924;2022-08-19T11:48:50;8.73;;;3.63;;
5339;SDS011;2692;48.848;8.924;2022-08-19T11:51:17;4.30;;;2.87;;
5339;SDS011;2692;48.848;8.924;2022-08-19T11:53:44;4.57;;;2.80;;
5339;SDS011;2692;48.848;8.924;2022-08-19T11:56:11;6.23;;;2.57;;
5339;SDS011;2692;48.848;8.924;2022-08-19T11:58:37;6.70;;;2.97;;
5339;SDS011;2692;48.848;8.924;2022-08-19T12:01:07;5.63;;;3.53;;
5339;SDS011;2692;48.848;8.924;2022-08-19T12:03:33;7.00;;;3.47;;
5339;SDS011;2692;48.848;8.924;2022-08-19T12:06:02;5.93;;;3.03;;
5339;SDS011;2692;48.848;8.924;2022-08-19T12:08:29;6.00;;;3.43;;
5339;SDS011;2692;48.848;8.924;2022-08-19T12:10:54;6.20;;;3.50;;
5339;SDS011;2692;48.848;8.924;2022-08-19T12:13:20;4.20;;;2.70;;
5339;SDS011;2692;48.848;8.924;2022-08-19T12:15:46;5.70;;;3.03;;
5339;SDS011;2692;48.848;8.924;2022-08-19T12:18:12;5.67;;;3.20;;
5339;SDS011;2692;48.848;8.924;2022-08-19T12:20:39;5.57;;;2.70;;
5339;SDS011;2692;48.848;8.924;2022-08-19T12:23:06;6.50;;;3.63;;
5339;SDS011;2692;48.848;8.924;2022-08-19T12:25:33;5.93;;;3.10;;
5339;SDS011;2692;48.848;8.924;2022-08-19T12:27:59;7.43;;;4.10;;
5339;SDS011;2692;48.848;8.924;2022-08-19T12:30:24;6.40;;;3.77;;
5339;SDS011;2692;48.848;8.924;2022-08-19T12:32:50;10.70;;;4.43;;
5339;SDS011;2692;48.848;8.924;2022-08-19T12:35:16;8.77;;;2.83;;
5339;SDS011;2692;48.848;8.924;2022-08-19T12:37:42;6.10;;;3.57;;
5339;SDS011;2692;48.848;8.924;2022-08-19T12:40:09;5.60;;;2.63;;
5339;SDS011;2692;48.848;8.924;2022-08-19T12:42:36;4.33;;;2.70;;
5339;SDS011;2692;48.848;8.924;2022-08-19T12:45:02;4.57;;;2.73;;
5339;SDS011;2692;48.848;8.924;2022-08-19T12:47:28;7.00;;;3.63;;
5339;SDS011;2692;48.848;8.924;2022-08-19T12:49:54;7.20;;;3.07;;
5339;SDS011;2692;48.848;8.924;2022-08-19T12:52:19;5.40;;;2.87;;
5339;SDS011;2692;48.848;8.924;2022-08-19T12:54:45;4.27;;;2.60;;
5339;SDS011;2692;48.848;8.924;2022-08-19T12:57:11;7.50;;;3.53;;
5339;SDS011;2692;48.848;8.924;2022-08-19T12:59:37;5.40;;;3.30;;
5339;SDS011;2692;48.848;8.924;2022-08-19T13:02:03;6.37;;;3.30;;
5339;SDS011;2692;48.848;8.924;2022-08-19T13:04:31;6.93;;;3.27;;
5339;SDS011;2692;48.848;8.924;2022-08-19T13:06:59;7.20;;;2.77;;
5339;SDS011;2692;48.848;8.924;2022-08-19T13:09:25;5.83;;;3.23;;
5339;SDS011;2692;48.848;8.924;2022-08-19T13:11:50;6.50;;;2.20;;
5339;SDS011;2692;48.848;8.924;2022-08-19T13:14:15;10.17;;;3.37;;
5339;SDS011;2692;48.848;8.924;2022-08-19T13:16:41;4.03;;;2.10;;
5339;SDS011;2692;48.848;8.924;2022-08-19T13:19:07;6.10;;;3.30;;
5339;SDS011;2692;48.848;8.924;2022-08-19T13:21:32;7.90;;;3.80;;
5339;SDS011;2692;48.848;8.924;2022-08-19T13:23:58;4.73;;;2.83;;
5339;SDS011;2692;48.848;8.924;2022-08-19T13:26:23;5.97;;;2.60;;
5339;SDS011;2692;48.848;8.924;2022-08-19T13:28:49;6.60;;;3.30;;
5339;SDS011;2692;48.848;8.924;2022-08-19T13:31:33;7.77;;;2.83;;
5339;SDS011;2692;48.848;8.924;2022-08-19T13:34:19;6.67;;;3.97;;
5339;SDS011;2692;48.848;8.924;2022-08-19T13:36:54;4.80;;;3.03;;
5339;SDS011;2692;48.848;8.924;2022-08-19T13:39:19;4.97;;;2.93;;
5339;SDS011;2692;48.848;8.924;2022-08-19T13:41:45;7.10;;;3.97;;
5339;SDS011;2692;48.848;8.924;2022-08-19T13:44:15;6.13;;;3.27;;
5339;SDS011;2692;48.848;8.924;2022-08-19T13:46:43;5.33;;;2.97;;
5339;SDS011;2692;48.848;8.924;2022-08-19T13:49:12;5.73;;;3.10;;
5339;SDS011;2692;48.848;8.924;2022-08-19T13:51:39;4.30;;;2.90;;
5339;SDS011;2692;48.848;8.924;2022-08-19T13:54:05;4.50;;;2.63;;
5339;SDS011;2692;48.848;8.924;2022-08-19T13:56:31;8.13;;;3.60;;
5339;SDS011;2692;48.848;8.924;2022-08-19T13:58:56;7.93;;;4.50;;
5339;SDS011;2692;48.848;8.924;2022-08-19T14:01:22;5.90;;;3.53;;
5339;SDS011;2692;48.848;8.924;2022-08-19T14:03:48;6.60;;;3.80;;
5339;SDS011;2692;48.848;8.924;2022-08-19T14:06:14;9.77;;;3.80;;
5339;SDS011;2692;48.848;8.924;2022-08-19T14:08:39;7.80;;;4.50;;
5339;SDS011;2692;48.848;8.924;2022-08-19T14:11:06;6.47;;;3.90;;
5339;SDS011;2692;48.848;8.924;2022-08-19T14:13:32;7.17;;;3.77;;
5339;SDS011;2692;48.848;8.924;2022-08-19T14:15:58;6.20;;;3.27;;
5339;SDS011;2692;48.848;8.924;2022-08-19T14:18:24;7.60;;;3.87;;
5339;SDS011;2692;48.848;8.924;2022-08-19T14:20:50;5.83;;;3.50;;
5339;SDS011;2692;48.848;8.924;2022-08-19T14:23:15;7.03;;;4.10;;
5339;SDS011;2692;48.848;8.924;2022-08-19T14:25:41;5.50;;;3.07;;
5339;SDS011;2692;48.848;8.924;2022-08-19T14:28:06;18.13;;;4.57;;
5339;SDS011;2692;48.848;8.924;2022-08-19T14:30:33;9.63;;;3.80;;
5339;SDS011;2692;48.848;8.924;2022-08-19T14:32:59;7.20;;;3.67;;
5339;SDS011;2692;48.848;8.924;2022-08-19T14:35:26;5.30;;;3.57;;
5339;SDS011;2692;48.848;8.924;2022-08-19T14:37:52;5.20;;;3.13;;
5339;SDS011;2692;48.848;8.924;2022-08-19T14:40:21;7.80;;;4.20;;
5339;SDS011;2692;48.848;8.924;2022-08-19T14:42:50;7.30;;;3.23;;
5339;SDS011;2692;48.848;8.924;2022-08-19T14:45:24;6.73;;;4.20;;
5339;SDS011;2692;48.848;8.924;2022-08-19T14:47:51;7.70;;;4.10;;
5339;SDS011;2692;48.848;8.924;2022-08-19T14:50:17;6.30;;;3.07;;
5339;SDS011;2692;48.848;8.924;2022-08-19T14:52:42;7.20;;;3.57;;
5339;SDS011;2692;48.848;8.924;2022-08-19T14:55:08;9.03;;;4.07;;
5339;SDS011;2692;48.848;8.924;2022-08-19T14:57:33;6.93;;;3.80;;
5339;SDS011;2692;48.848;8.924;2022-08-19T14:59:58;7.60;;;4.37;;
5339;SDS011;2692;48.848;8.924;2022-08-19T15:02:24;8.53;;;3.60;;
5339;SDS011;2692;48.848;8.924;2022-08-19T15:04:49;6.10;;;3.57;;
5339;SDS011;2692;48.848;8.924;2022-08-19T15:07:15;6.80;;;3.87;;
5339;SDS011;2692;48.848;8.924;2022-08-19T15:09:40;5.80;;;3.33;;
5339;SDS011;2692;48.848;8.924;2022-08-19T15:12:06;6.30;;;3.63;;
5339;SDS011;2692;48.848;8.924;2022-08-19T15:14:32;6.23;;;3.60;;
5339;SDS011;2692;48.848;8.924;2022-08-19T15:16:59;4.43;;;2.60;;